createdAt,value
2017-07-30T00:00:51.222Z,6.30
2017-07-30T00:03:18.406Z,6.83
2017-07-30T00:05:44.778Z,6.27
2017-07-30T00:08:11.200Z,6.47
2017-07-30T00:10:37.514Z,6.60
2017-07-30T00:13:03.907Z,6.40
2017-07-30T00:15:30.227Z,6.80
2017-07-30T00:17:57.301Z,6.43
2017-07-30T00:20:23.708Z,6.40
2017-07-30T00:22:50.807Z,6.90
2017-07-30T00:25:17.140Z,6.40
2017-07-30T00:27:43.536Z,6.17
2017-07-30T00:30:09.964Z,6.53
2017-07-30T00:32:36.296Z,6.13
2017-07-30T00:35:02.623Z,6.60
2017-07-30T00:37:28.985Z,6.33
2017-07-30T00:39:55.297Z,6.27
2017-07-30T00:42:21.652Z,5.87
2017-07-30T00:44:47.972Z,5.70
2017-07-30T00:47:14.347Z,5.93
2017-07-30T00:49:40.696Z,6.00
2017-07-30T00:52:07.755Z,5.63
2017-07-30T00:54:34.201Z,5.63
2017-07-30T00:57:00.536Z,5.90
2017-07-30T00:59:26.967Z,6.20
2017-07-30T01:01:53.297Z,6.50
2017-07-30T01:04:19.658Z,6.00
2017-07-30T01:06:46.077Z,6.50
2017-07-30T01:09:12.451Z,5.40
2017-07-30T01:11:38.812Z,6.00
2017-07-30T01:14:05.144Z,5.50
2017-07-30T01:16:31.497Z,5.63
2017-07-30T01:18:57.864Z,5.90
2017-07-30T01:21:24.228Z,5.80
2017-07-30T01:23:51.296Z,5.33
2017-07-30T01:26:17.833Z,6.00
2017-07-30T01:28:44.173Z,5.50
2017-07-30T01:31:10.530Z,6.00
2017-07-30T01:33:36.920Z,5.77
2017-07-30T01:36:03.276Z,6.10
2017-07-30T01:38:29.664Z,6.57
2017-07-30T01:40:56.776Z,6.23
2017-07-30T01:43:23.172Z,5.80
2017-07-30T01:45:49.549Z,5.47
2017-07-30T01:48:15.911Z,5.13
2017-07-30T01:50:43.616Z,5.00
2017-07-30T01:53:09.952Z,5.47
2017-07-30T01:55:36.309Z,5.63
2017-07-30T01:58:02.768Z,5.83
2017-07-30T02:00:29.243Z,5.90
2017-07-30T02:02:55.629Z,5.80
2017-07-30T02:05:22.712Z,5.07
2017-07-30T02:07:49.043Z,5.17
2017-07-30T02:10:15.449Z,5.60
2017-07-30T02:12:42.514Z,5.40
2017-07-30T02:15:08.870Z,5.50
2017-07-30T02:17:35.251Z,5.60
2017-07-30T02:20:01.716Z,5.13
2017-07-30T02:22:28.860Z,5.20
2017-07-30T02:24:55.264Z,5.40
2017-07-30T02:27:21.656Z,4.73
2017-07-30T02:29:48.016Z,5.50
2017-07-30T02:32:14.372Z,5.40
2017-07-30T02:34:41.531Z,5.57
2017-07-30T02:37:07.862Z,4.90
2017-07-30T02:39:34.287Z,5.60
2017-07-30T02:42:01.408Z,4.73
2017-07-30T02:44:27.735Z,5.33
2017-07-30T02:46:54.062Z,5.53
2017-07-30T02:49:20.437Z,5.70
2017-07-30T02:51:46.756Z,5.73
2017-07-30T02:54:13.872Z,5.17
2017-07-30T02:56:40.184Z,5.20
2017-07-30T02:59:06.547Z,5.43
2017-07-30T03:01:32.863Z,4.93
2017-07-30T03:03:59.228Z,5.73
2017-07-30T03:06:26.296Z,4.97
2017-07-30T03:08:52.711Z,5.83
2017-07-30T03:11:19.812Z,5.20
2017-07-30T03:13:46.139Z,5.30
2017-07-30T03:16:12.518Z,5.50
2017-07-30T03:18:39.765Z,4.90
2017-07-30T03:21:06.919Z,5.30
2017-07-30T03:23:34.054Z,5.07
2017-07-30T03:26:00.384Z,5.30
2017-07-30T03:28:26.758Z,6.07
2017-07-30T03:33:27.118Z,5.50
2017-07-30T03:35:53.445Z,5.40
2017-07-30T03:38:20.000Z,5.17
2017-07-30T03:40:46.370Z,5.40
2017-07-30T03:43:13.438Z,4.83
2017-07-30T03:45:39.765Z,5.73
2017-07-30T03:48:06.218Z,5.67
2017-07-30T03:50:32.551Z,5.47
2017-07-30T03:52:58.882Z,5.47
2017-07-30T03:55:25.252Z,5.23
2017-07-30T03:57:51.641Z,4.83
2017-07-30T04:00:18.233Z,5.03
2017-07-30T04:02:44.552Z,5.20
2017-07-30T04:05:10.933Z,5.33
2017-07-30T04:07:37.259Z,5.80
2017-07-30T04:10:03.625Z,5.87
2017-07-30T04:12:29.991Z,5.17
2017-07-30T04:14:56.329Z,5.27
2017-07-30T04:17:23.445Z,5.13
2017-07-30T04:19:49.779Z,5.10
2017-07-30T04:22:16.185Z,5.40
2017-07-30T04:24:42.509Z,5.77
2017-07-30T04:27:08.824Z,5.57
2017-07-30T04:29:35.183Z,4.87
2017-07-30T04:32:01.506Z,5.10
2017-07-30T04:34:27.819Z,4.80
2017-07-30T04:36:54.439Z,5.90
2017-07-30T04:39:21.486Z,5.40
2017-07-30T04:41:48.594Z,5.20
2017-07-30T04:44:14.912Z,5.00
2017-07-30T04:46:41.316Z,5.50
2017-07-30T04:49:07.645Z,5.30
2017-07-30T04:51:33.961Z,4.90
2017-07-30T04:54:01.054Z,5.63
2017-07-30T04:56:27.438Z,5.20
2017-07-30T04:58:54.505Z,5.10
2017-07-30T05:01:20.836Z,5.67
2017-07-30T05:03:47.238Z,5.33
2017-07-30T05:06:14.300Z,5.57
2017-07-30T05:08:41.387Z,5.50
2017-07-30T05:11:07.707Z,5.70
2017-07-30T05:13:34.033Z,5.50
2017-07-30T05:16:00.413Z,5.10
2017-07-30T05:18:26.732Z,5.37
2017-07-30T05:20:53.239Z,5.73
2017-07-30T05:23:19.601Z,5.50
2017-07-30T05:25:45.929Z,5.30
2017-07-30T05:28:12.313Z,6.10
2017-07-30T05:30:38.624Z,5.70
2017-07-30T05:33:05.745Z,5.43
2017-07-30T05:35:32.105Z,5.57
2017-07-30T05:37:59.159Z,5.73
2017-07-30T05:40:26.268Z,5.47
2017-07-30T05:42:52.603Z,5.07
2017-07-30T05:45:19.221Z,5.20
2017-07-30T05:47:45.824Z,5.53
2017-07-30T05:50:12.153Z,5.70
2017-07-30T05:52:38.522Z,5.30
2017-07-30T05:55:04.856Z,5.50
2017-07-30T05:57:31.217Z,5.10
2017-07-30T05:59:57.544Z,5.70
2017-07-30T06:02:23.919Z,5.43
2017-07-30T06:04:50.252Z,5.33
2017-07-30T06:07:16.585Z,5.70
2017-07-30T06:09:42.986Z,5.50
2017-07-30T06:12:10.107Z,5.23
2017-07-30T06:14:36.427Z,4.90
2017-07-30T06:17:02.764Z,4.73
2017-07-30T06:19:29.201Z,5.07
2017-07-30T06:21:55.669Z,5.40
2017-07-30T06:24:23.045Z,5.60
2017-07-30T06:26:49.524Z,5.60
2017-07-30T06:29:15.868Z,5.10
2017-07-30T06:31:42.370Z,5.17
2017-07-30T06:34:08.736Z,4.80
2017-07-30T06:36:35.174Z,4.63
2017-07-30T06:39:01.540Z,4.83
2017-07-30T06:41:27.948Z,4.50
2017-07-30T06:43:55.156Z,4.53
2017-07-30T06:46:21.491Z,4.43
2017-07-30T06:48:47.812Z,4.90
2017-07-30T06:51:14.238Z,4.20
2017-07-30T06:53:40.662Z,4.70
2017-07-30T06:56:07.042Z,4.37
2017-07-30T06:58:33.464Z,4.30
2017-07-30T07:00:59.821Z,4.20
2017-07-30T07:03:26.935Z,4.23
2017-07-30T07:05:53.288Z,4.00
2017-07-30T07:08:20.452Z,4.10
2017-07-30T07:10:47.528Z,3.57
2017-07-30T07:13:13.989Z,4.50
2017-07-30T07:15:40.457Z,3.63
2017-07-30T07:18:06.836Z,3.77
2017-07-30T07:20:33.230Z,3.70
2017-07-30T07:23:00.634Z,3.60
2017-07-30T07:25:27.067Z,3.77
2017-07-30T07:27:53.479Z,3.87
2017-07-30T07:30:19.840Z,4.00
2017-07-30T07:32:46.208Z,3.93
2017-07-30T07:35:12.531Z,4.20
2017-07-30T07:37:38.842Z,3.83
2017-07-30T07:40:05.405Z,3.53
2017-07-30T07:42:32.483Z,3.37
2017-07-30T07:44:58.857Z,4.27
2017-07-30T07:47:25.272Z,3.80
2017-07-30T07:49:51.600Z,3.70
2017-07-30T07:52:17.929Z,3.40
2017-07-30T07:54:44.319Z,3.60
2017-07-30T07:57:11.413Z,3.67
2017-07-30T07:59:37.841Z,4.00
2017-07-30T08:02:04.204Z,3.83
2017-07-30T08:04:30.579Z,4.20
2017-07-30T08:06:57.204Z,3.60
2017-07-30T08:09:24.279Z,3.80
2017-07-30T08:11:50.606Z,4.27
2017-07-30T08:14:17.044Z,3.90
2017-07-30T08:16:43.392Z,4.30
2017-07-30T08:19:09.773Z,3.90
2017-07-30T08:21:36.894Z,3.90
2017-07-30T08:24:03.272Z,3.57
2017-07-30T08:26:29.739Z,4.10
2017-07-30T08:28:56.112Z,4.13
2017-07-30T08:31:22.432Z,3.70
2017-07-30T08:33:48.835Z,3.90
2017-07-30T08:36:15.201Z,4.30
2017-07-30T08:38:41.891Z,3.80
2017-07-30T08:41:08.289Z,4.30
2017-07-30T08:43:35.386Z,3.93
2017-07-30T08:46:01.719Z,4.33
2017-07-30T08:48:28.147Z,4.00
2017-07-30T08:50:54.538Z,4.00
2017-07-30T08:53:21.689Z,3.77
2017-07-30T08:55:48.845Z,3.80
2017-07-30T08:58:15.288Z,3.43
2017-07-30T09:00:41.618Z,3.70
2017-07-30T09:03:08.220Z,4.10
2017-07-30T09:05:34.580Z,3.40
2017-07-30T09:08:00.905Z,3.10
2017-07-30T09:10:28.015Z,4.00
2017-07-30T09:12:54.348Z,3.70
2017-07-30T09:15:20.823Z,3.90
2017-07-30T09:17:48.541Z,3.97
2017-07-30T09:20:15.277Z,3.47
2017-07-30T09:22:41.686Z,3.57
2017-07-30T09:25:08.265Z,3.47
2017-07-30T09:27:35.501Z,3.83
2017-07-30T09:30:01.890Z,3.20
2017-07-30T09:32:28.297Z,3.57
2017-07-30T09:34:55.498Z,3.50
2017-07-30T09:37:21.858Z,3.70
2017-07-30T09:39:48.189Z,3.77
2017-07-30T09:42:14.688Z,3.30
2017-07-30T09:44:41.049Z,2.93
2017-07-30T09:47:07.682Z,3.03
2017-07-30T09:49:34.003Z,3.23
2017-07-30T09:52:00.320Z,3.10
2017-07-30T09:54:26.695Z,3.20
2017-07-30T09:56:53.028Z,3.63
2017-07-30T09:59:19.344Z,3.23
2017-07-30T10:01:45.752Z,3.37
2017-07-30T10:04:12.143Z,3.40
2017-07-30T10:06:39.254Z,4.10
2017-07-30T10:09:05.643Z,3.00
2017-07-30T10:11:31.967Z,3.40
2017-07-30T10:13:58.373Z,3.63
2017-07-30T10:16:25.503Z,3.73
2017-07-30T10:18:52.740Z,4.33
2017-07-30T10:21:19.081Z,3.93
2017-07-30T10:23:45.427Z,3.50
2017-07-30T10:26:11.844Z,3.50
2017-07-30T10:28:38.319Z,3.80
2017-07-30T10:31:05.457Z,3.50
2017-07-30T10:33:32.902Z,3.73
2017-07-30T10:35:59.364Z,2.90
2017-07-30T10:38:25.881Z,3.20
2017-07-30T10:40:52.410Z,3.13
2017-07-30T10:43:19.787Z,3.37
2017-07-30T10:45:46.565Z,3.40
2017-07-30T10:48:12.951Z,2.97
2017-07-30T10:50:40.061Z,3.50
2017-07-30T10:53:06.532Z,3.30
2017-07-30T10:55:33.991Z,3.40
2017-07-30T10:58:01.071Z,3.47
2017-07-30T11:00:27.399Z,3.60
2017-07-30T11:02:53.772Z,3.27
2017-07-30T11:05:20.170Z,3.53
2017-07-30T11:07:46.496Z,3.57
2017-07-30T11:10:13.367Z,3.27
2017-07-30T11:12:40.795Z,3.50
2017-07-30T11:15:07.254Z,3.43
2017-07-30T11:17:33.640Z,3.10
2017-07-30T11:20:00.022Z,3.10
2017-07-30T11:22:26.378Z,3.07
2017-07-30T11:24:52.797Z,3.03
2017-07-30T11:27:19.195Z,3.20
2017-07-30T11:29:45.533Z,3.80
2017-07-30T11:32:11.893Z,3.20
2017-07-30T11:34:38.261Z,2.80
2017-07-30T11:37:04.720Z,3.17
2017-07-30T11:39:31.092Z,3.03
2017-07-30T11:41:57.408Z,2.90
2017-07-30T11:44:23.821Z,3.03
2017-07-30T11:46:50.272Z,2.67
2017-07-30T11:49:16.948Z,3.10
2017-07-30T11:51:44.356Z,4.00
2017-07-30T11:54:11.091Z,3.40
2017-07-30T11:56:37.521Z,3.53
2017-07-30T11:59:03.931Z,3.23
2017-07-30T12:01:30.268Z,3.70
2017-07-30T12:03:56.611Z,3.33
2017-07-30T12:06:22.984Z,3.47
2017-07-30T12:08:49.421Z,2.93
2017-07-30T12:11:22.757Z,3.23
2017-07-30T12:13:49.138Z,2.83
2017-07-30T12:16:15.631Z,3.70
2017-07-30T12:18:42.147Z,3.53
2017-07-30T12:21:08.676Z,3.80
2017-07-30T12:23:35.067Z,3.70
2017-07-30T12:26:01.442Z,3.37
2017-07-30T12:28:28.780Z,3.43
2017-07-30T12:30:55.380Z,3.53
2017-07-30T12:33:21.743Z,3.73
2017-07-30T12:35:48.074Z,3.37
2017-07-30T12:38:14.470Z,3.67
2017-07-30T12:40:40.949Z,3.77
2017-07-30T12:43:08.112Z,3.70
2017-07-30T12:45:35.184Z,3.73
2017-07-30T12:48:01.583Z,3.63
2017-07-30T12:50:27.937Z,4.47
2017-07-30T12:52:54.317Z,4.30
2017-07-30T12:55:20.715Z,3.90
2017-07-30T12:57:47.074Z,3.40
2017-07-30T13:00:13.431Z,3.77
2017-07-30T13:02:39.801Z,3.43
2017-07-30T13:05:06.454Z,2.80
2017-07-30T13:07:32.790Z,3.37
2017-07-30T13:09:59.128Z,3.57
2017-07-30T13:12:25.509Z,3.27
2017-07-30T13:14:52.593Z,3.63
2017-07-30T13:17:18.925Z,3.37
2017-07-30T13:19:45.292Z,2.80
2017-07-30T13:22:11.613Z,4.00
2017-07-30T13:24:37.988Z,3.80
2017-07-30T13:27:05.241Z,3.60
2017-07-30T13:29:31.733Z,4.27
2017-07-30T13:31:58.144Z,4.07
2017-07-30T13:34:24.516Z,3.87
2017-07-30T13:36:50.912Z,3.60
2017-07-30T13:39:17.250Z,3.80
2017-07-30T13:41:43.576Z,3.90
2017-07-30T13:44:10.087Z,3.90
2017-07-30T13:46:36.480Z,3.70
2017-07-30T13:49:03.555Z,4.23
2017-07-30T13:51:29.941Z,3.53
2017-07-30T13:53:56.335Z,3.90
2017-07-30T13:56:22.664Z,4.10
2017-07-30T13:58:48.992Z,3.63
2017-07-30T14:01:15.612Z,3.67
2017-07-30T14:03:41.946Z,3.40
2017-07-30T14:06:08.308Z,3.20
2017-07-30T14:08:34.643Z,3.40
2017-07-30T14:11:01.041Z,3.23
2017-07-30T14:13:27.363Z,3.23
2017-07-30T14:15:54.429Z,3.17
2017-07-30T14:18:20.862Z,3.27
2017-07-30T14:20:47.197Z,3.60
2017-07-30T14:23:13.589Z,3.23
2017-07-30T14:25:39.969Z,3.40
2017-07-30T14:28:06.347Z,3.10
2017-07-30T14:30:32.820Z,3.30
2017-07-30T14:32:59.181Z,3.80
2017-07-30T14:35:25.706Z,3.17
2017-07-30T14:37:52.053Z,3.57
2017-07-30T14:40:18.420Z,3.67
2017-07-30T14:42:44.738Z,4.33
2017-07-30T14:45:11.054Z,3.67
2017-07-30T14:47:37.443Z,3.80
2017-07-30T14:50:03.768Z,3.50
2017-07-30T14:52:30.085Z,4.10
2017-07-30T14:54:56.432Z,4.27
2017-07-30T14:57:22.753Z,3.80
2017-07-30T14:59:49.872Z,3.70
2017-07-30T15:02:16.304Z,3.20
2017-07-30T15:04:43.376Z,3.70
2017-07-30T15:07:10.481Z,3.57
2017-07-30T15:09:37.009Z,3.50
2017-07-30T15:12:03.421Z,3.77
2017-07-30T15:14:29.772Z,4.00
2017-07-30T15:16:56.111Z,3.50
2017-07-30T15:19:22.482Z,3.40
2017-07-30T15:21:49.545Z,4.10
2017-07-30T15:24:15.881Z,3.90
2017-07-30T15:26:42.239Z,3.87
2017-07-30T15:29:08.633Z,3.97
2017-07-30T15:31:35.797Z,3.57
2017-07-30T15:34:02.204Z,3.90
2017-07-30T15:36:29.349Z,3.73
2017-07-30T15:38:55.784Z,3.30
2017-07-30T15:41:22.155Z,3.80
2017-07-30T15:43:49.339Z,3.90
2017-07-30T15:46:15.676Z,3.70
2017-07-30T15:48:42.008Z,3.40
2017-07-30T15:51:08.436Z,3.77
2017-07-30T15:53:34.775Z,3.70
2017-07-30T15:56:08.221Z,3.43
2017-07-30T15:58:34.549Z,3.37
2017-07-30T16:01:00.906Z,3.20
2017-07-30T16:03:27.275Z,3.83
2017-07-30T16:05:53.601Z,3.00
2017-07-30T16:08:19.992Z,3.60
2017-07-30T16:10:46.340Z,3.50
2017-07-30T16:13:12.676Z,3.80
2017-07-30T16:15:39.066Z,3.53
2017-07-30T16:18:05.404Z,3.50
2017-07-30T16:20:31.816Z,3.40
2017-07-30T16:22:58.947Z,3.50
2017-07-30T16:25:25.312Z,4.13
2017-07-30T16:27:51.744Z,3.87
2017-07-30T16:30:18.091Z,3.80
2017-07-30T16:32:44.417Z,3.40
2017-07-30T16:35:10.790Z,3.77
2017-07-30T16:37:37.407Z,3.60
2017-07-30T16:40:03.788Z,3.90
2017-07-30T16:42:30.900Z,5.00
2017-07-30T16:44:57.313Z,3.90
2017-07-30T16:47:23.691Z,3.23
2017-07-30T16:49:50.825Z,3.30
2017-07-30T16:52:17.179Z,4.90
2017-07-30T16:54:44.271Z,5.00
2017-07-30T16:57:10.653Z,3.67
2017-07-30T16:59:36.971Z,4.60
2017-07-30T17:02:03.472Z,5.07
2017-07-30T17:04:29.815Z,6.00
2017-07-30T17:06:56.436Z,4.57
2017-07-30T17:09:23.031Z,4.50
2017-07-30T17:11:50.112Z,4.67
2017-07-30T17:14:16.504Z,4.13
2017-07-30T17:16:43.574Z,4.73
2017-07-30T17:19:09.902Z,4.80
2017-07-30T17:21:37.004Z,4.73
2017-07-30T17:24:03.368Z,3.80
2017-07-30T17:26:30.516Z,3.97
2017-07-30T17:28:57.606Z,4.50
2017-07-30T17:31:23.940Z,3.63
2017-07-30T17:33:50.332Z,3.87
2017-07-30T17:36:17.504Z,3.50
2017-07-30T17:38:43.851Z,4.10
2017-07-30T17:41:10.239Z,3.37
2017-07-30T17:43:37.379Z,5.00
2017-07-30T17:46:03.726Z,4.63
2017-07-30T17:48:30.863Z,3.60
2017-07-30T17:50:57.250Z,3.30
2017-07-30T17:53:23.591Z,3.20
2017-07-30T17:55:49.940Z,2.50
2017-07-30T17:58:16.319Z,3.60
2017-07-30T18:00:42.717Z,2.87
2017-07-30T18:03:09.086Z,2.90
2017-07-30T18:05:35.410Z,2.90
2017-07-30T18:08:01.867Z,2.67
2017-07-30T18:10:28.189Z,3.27
2017-07-30T18:12:54.631Z,2.80
2017-07-30T18:15:20.962Z,3.10
2017-07-30T18:17:47.287Z,3.20
2017-07-30T18:20:13.649Z,3.60
2017-07-30T18:22:40.064Z,3.43
2017-07-30T18:25:06.424Z,3.60
2017-07-30T18:27:32.749Z,3.00
2017-07-30T18:29:59.184Z,3.20
2017-07-30T18:32:25.515Z,3.03
2017-07-30T18:34:52.090Z,3.50
2017-07-30T18:37:19.208Z,3.60
2017-07-30T18:39:45.560Z,4.57
2017-07-30T18:42:12.724Z,4.17
2017-07-30T18:44:39.832Z,3.77
2017-07-30T18:47:06.327Z,4.77
2017-07-30T18:49:32.967Z,4.70
2017-07-30T18:51:59.279Z,4.20
2017-07-30T18:54:25.660Z,4.23
2017-07-30T18:56:52.018Z,4.63
2017-07-30T18:59:19.146Z,3.67
2017-07-30T19:01:45.524Z,4.30
2017-07-30T19:04:11.851Z,4.23
2017-07-30T19:06:38.987Z,3.33
2017-07-30T19:09:06.058Z,4.07
2017-07-30T19:11:32.456Z,4.37
2017-07-30T19:13:58.770Z,4.90
2017-07-30T19:16:25.144Z,4.93
2017-07-30T19:18:51.511Z,4.50
2017-07-30T19:21:17.837Z,5.60
2017-07-30T19:23:44.180Z,4.60
2017-07-30T19:26:10.551Z,4.33
2017-07-30T19:28:37.697Z,5.20
2017-07-30T19:31:04.159Z,5.50
2017-07-30T19:33:30.621Z,4.70
2017-07-30T19:35:57.000Z,8.17
2017-07-30T19:38:24.131Z,20.70
2017-07-30T19:40:50.486Z,7.80
2017-07-30T19:43:17.825Z,5.00
2017-07-30T19:45:44.260Z,5.53
2017-07-30T19:48:10.636Z,6.23
2017-07-30T19:50:37.288Z,7.10
2017-07-30T19:53:03.900Z,7.00
2017-07-30T19:55:30.259Z,5.20
2017-07-30T19:57:56.637Z,8.00
2017-07-30T20:00:23.712Z,8.27
2017-07-30T20:02:50.045Z,6.97
2017-07-30T20:05:16.447Z,5.00
2017-07-30T20:07:42.842Z,4.03
2017-07-30T20:10:09.307Z,4.70
2017-07-30T20:12:35.657Z,4.90
2017-07-30T20:15:02.770Z,4.53
2017-07-30T20:17:29.180Z,4.47
2017-07-30T20:19:55.512Z,4.87
2017-07-30T20:22:21.852Z,4.20
2017-07-30T20:24:48.314Z,4.93
2017-07-30T20:27:15.537Z,4.57
2017-07-30T20:29:41.908Z,4.60
2017-07-30T20:32:09.110Z,4.90
2017-07-30T20:34:35.448Z,4.43
2017-07-30T20:37:01.791Z,4.93
2017-07-30T20:39:28.358Z,4.30
2017-07-30T20:41:55.875Z,3.80
2017-07-30T20:44:22.259Z,4.00
2017-07-30T20:46:49.407Z,6.00
2017-07-30T20:49:15.917Z,4.40
2017-07-30T20:51:42.287Z,4.53
2017-07-30T20:54:08.691Z,4.40
2017-07-30T20:56:35.275Z,4.57
2017-07-30T20:59:01.960Z,4.73
2017-07-30T21:01:28.397Z,5.43
2017-07-30T21:03:54.856Z,4.80
2017-07-30T21:06:21.984Z,4.70
2017-07-30T21:08:48.308Z,3.93
2017-07-30T21:11:15.172Z,4.80
2017-07-30T21:13:42.285Z,4.20
2017-07-30T21:16:08.683Z,4.10
2017-07-30T21:18:35.075Z,4.40
2017-07-30T21:21:02.156Z,4.60
2017-07-30T21:23:28.543Z,4.47
2017-07-30T21:25:54.876Z,4.33
2017-07-30T21:28:21.218Z,4.60
2017-07-30T21:30:48.400Z,4.83
2017-07-30T21:33:14.741Z,4.10
2017-07-30T21:35:41.152Z,4.20
2017-07-30T21:38:07.571Z,4.90
2017-07-30T21:40:33.929Z,4.27
2017-07-30T21:43:00.311Z,4.53
2017-07-30T21:45:26.645Z,4.40
2017-07-30T21:47:53.083Z,4.60
2017-07-30T21:50:19.411Z,4.30
2017-07-30T21:52:45.795Z,4.17
2017-07-30T21:55:12.343Z,4.60
2017-07-30T21:57:38.692Z,4.80
2017-07-30T22:00:05.124Z,4.30
2017-07-30T22:02:31.904Z,4.03
2017-07-30T22:04:58.477Z,4.57
2017-07-30T22:07:25.096Z,4.80
2017-07-30T22:09:51.529Z,4.87
2017-07-30T22:12:17.897Z,4.83
2017-07-30T22:14:44.328Z,5.30
2017-07-30T22:17:10.802Z,4.70
2017-07-30T22:19:37.878Z,5.10
2017-07-30T22:22:04.252Z,4.63
2017-07-30T22:24:30.740Z,4.27
2017-07-30T22:26:57.602Z,4.40
2017-07-30T22:29:23.980Z,3.90
2017-07-30T22:31:50.461Z,4.90
2017-07-30T22:34:16.817Z,5.27
2017-07-30T22:36:43.349Z,4.73
2017-07-30T22:39:09.741Z,5.43
2017-07-30T22:41:36.094Z,4.80
2017-07-30T22:44:03.141Z,4.13
2017-07-30T22:46:29.538Z,5.57
2017-07-30T22:48:56.603Z,4.77
2017-07-30T22:51:22.984Z,4.73
2017-07-30T22:53:49.376Z,4.93
2017-07-30T22:56:15.709Z,4.63
2017-07-30T22:58:42.132Z,5.40
2017-07-30T23:01:08.476Z,5.03
2017-07-30T23:03:34.848Z,4.90
2017-07-30T23:06:01.220Z,4.93
2017-07-30T23:08:27.550Z,5.27
2017-07-30T23:10:54.612Z,5.07
2017-07-30T23:13:21.000Z,6.00
2017-07-30T23:15:47.388Z,5.40
2017-07-30T23:18:13.717Z,5.10
2017-07-30T23:20:40.310Z,5.13
2017-07-30T23:23:06.689Z,5.17
2017-07-30T23:25:33.008Z,4.60
2017-07-30T23:27:59.334Z,4.90
2017-07-30T23:30:25.699Z,5.30
2017-07-30T23:32:52.096Z,5.70
2017-07-30T23:35:18.425Z,5.60
2017-07-30T23:37:44.816Z,5.03
2017-07-30T23:40:11.485Z,6.13
2017-07-30T23:42:38.543Z,5.77
2017-07-30T23:45:05.141Z,5.13
2017-07-30T23:47:31.548Z,5.80
2017-07-30T23:49:57.901Z,5.60
2017-07-30T23:52:24.260Z,5.87
2017-07-30T23:54:51.364Z,5.43
2017-07-30T23:57:17.764Z,6.30
2017-07-30T23:59:44.084Z,5.23
